Greenwood Lake (4N1)
West Milford, NJ
Field Elevation: 791
Lat: 41°07.70N  Long: 74°20.79W
CTAF/Unicom Freq: 122.9000
Weather Advisories
2016-10-26   17:02 Z
Altimeter 30.37" Hg
Wind 030° @ 10 KT
Gusts 14 KT
Visibility 10 SM
Ceiling SCT046
Temperature 7° C (45° F)
Dewpoint -5° C (23° F)
Relative Humidity 43%
Density Altitude --
Condensation Altitude 6,600 feet
Wind Chill: 4° C (39° F)
Wind and Runways
Indicated Runway = 06
Headwind = 9 kt
Crosswind = 5 kt
More Info
NOAA Forecast
About Us
Belfort Instrument
FAA Disclaimer: The data displayed is for advisory purposes only and is not to be used for flight planning or operations. For official data, please call (not available) to hear the current automated AWOS voice message.
  METAR 4N1 261702Z AUTO 03010G14KT 10 SM SCT046 07/M05 A3037